createdAt,value
2022-12-18T00:02:33.195Z,19.4
2022-12-18T00:07:33.141Z,19.9
2022-12-18T00:12:33.132Z,19.6
2022-12-18T00:17:33.136Z,17.9
2022-12-18T00:22:33.138Z,21.6
2022-12-18T00:27:33.134Z,18.4
2022-12-18T00:32:33.148Z,17.6
2022-12-18T00:37:33.197Z,17.7
2022-12-18T00:42:33.147Z,17.2
2022-12-18T00:47:33.160Z,16.6
2022-12-18T00:52:33.139Z,17.7
2022-12-18T00:57:33.149Z,17.3
2022-12-18T01:02:33.279Z,16.8
2022-12-18T01:07:33.188Z,17.1
2022-12-18T01:12:33.151Z,18.4
2022-12-18T01:17:33.156Z,17.0
2022-12-18T01:22:33.160Z,17.0
2022-12-18T01:27:33.151Z,16.3
2022-12-18T01:32:33.164Z,16.5
2022-12-18T01:37:33.147Z,15.7
2022-12-18T01:42:33.175Z,15.2
2022-12-18T01:47:33.156Z,14.4
2022-12-18T01:52:33.153Z,14.3
2022-12-18T01:57:33.154Z,14.6
2022-12-18T02:02:33.226Z,14.7
2022-12-18T02:07:33.152Z,15.1
2022-12-18T02:12:33.149Z,14.0
2022-12-18T02:17:33.158Z,14.9
2022-12-18T02:22:33.161Z,15.3
2022-12-18T02:27:33.163Z,13.9
2022-12-18T02:32:33.151Z,13.9
2022-12-18T02:37:33.171Z,13.6
2022-12-18T02:42:33.157Z,13.7
2022-12-18T02:47:33.159Z,13.5
2022-12-18T02:52:33.153Z,13.5
2022-12-18T02:57:33.162Z,13.5
2022-12-18T03:02:33.260Z,13.5
2022-12-18T03:07:33.158Z,14.2
2022-12-18T03:12:33.170Z,12.3
2022-12-18T03:17:33.158Z,13.1
2022-12-18T03:22:33.154Z,11.6
2022-12-18T03:27:33.159Z,12.6
2022-12-18T03:32:33.162Z,11.9
2022-12-18T03:37:33.159Z,11.7
2022-12-18T03:42:33.202Z,12.6
2022-12-18T03:47:33.164Z,11.2
2022-12-18T03:52:33.165Z,12.4
2022-12-18T03:57:33.165Z,12.1
2022-12-18T04:02:33.231Z,11.4
2022-12-18T04:07:33.165Z,11.7
2022-12-18T04:12:33.171Z,11.1
2022-12-18T04:17:33.173Z,11.6
2022-12-18T04:22:33.165Z,9.9
2022-12-18T04:27:33.171Z,11.2
2022-12-18T04:32:33.171Z,10.7
2022-12-18T04:37:33.169Z,10.5
2022-12-18T04:42:33.173Z,10.3
2022-12-18T04:47:33.168Z,10.4
2022-12-18T04:52:33.247Z,10.6
2022-12-18T04:57:33.179Z,10.4
2022-12-18T05:02:33.297Z,9.7
2022-12-18T05:07:33.275Z,10.3
2022-12-18T05:12:33.180Z,10.3
2022-12-18T05:17:33.178Z,10.4
2022-12-18T05:22:33.183Z,10.5
2022-12-18T05:27:33.280Z,10.2
2022-12-18T05:32:33.180Z,9.7
2022-12-18T05:37:35.866Z,9.9
2022-12-18T05:42:33.175Z,10.2
2022-12-18T05:47:33.187Z,10.6
2022-12-18T05:52:33.181Z,9.7
2022-12-18T05:57:33.178Z,9.9
2022-12-18T06:02:33.282Z,10.6
2022-12-18T06:07:33.195Z,11.0
2022-12-18T06:12:33.187Z,9.4
2022-12-18T06:17:33.188Z,9.9
2022-12-18T06:22:33.190Z,10.6
2022-12-18T06:27:33.199Z,9.9
2022-12-18T06:32:33.189Z,10.3
2022-12-18T06:37:33.189Z,10.7
2022-12-18T06:42:33.292Z,9.9
2022-12-18T06:47:33.199Z,10.0
2022-12-18T06:52:33.209Z,10.8
2022-12-18T06:57:33.193Z,10.2
2022-12-18T07:02:33.289Z,10.1
2022-12-18T07:07:33.202Z,9.9
2022-12-18T07:12:33.369Z,10.3
2022-12-18T07:17:33.233Z,9.8
2022-12-18T07:22:33.201Z,9.8
2022-12-18T07:27:33.204Z,9.7
2022-12-18T07:32:33.206Z,9.8
2022-12-18T07:37:33.209Z,10.4
2022-12-18T07:42:33.206Z,9.4
2022-12-18T07:47:33.210Z,9.3
2022-12-18T07:52:33.223Z,9.5
2022-12-18T07:57:50.528Z,9.4
2022-12-18T08:02:33.328Z,9.6
2022-12-18T08:07:33.219Z,9.0
2022-12-18T08:12:33.218Z,9.6
2022-12-18T08:17:33.216Z,9.9
2022-12-18T08:22:33.318Z,9.5
2022-12-18T08:27:33.217Z,10.2
2022-12-18T08:32:33.223Z,9.7
2022-12-18T08:37:33.480Z,10.8
2022-12-18T08:42:33.229Z,8.3
2022-12-18T08:47:33.242Z,10.2
2022-12-18T08:52:33.236Z,10.1
2022-12-18T08:57:33.226Z,10.1
2022-12-18T09:02:33.557Z,10.3
2022-12-18T09:07:33.225Z,9.3
2022-12-18T09:12:33.241Z,9.6
2022-12-18T09:17:33.318Z,10.1
2022-12-18T09:22:33.231Z,10.4
2022-12-18T09:27:33.239Z,9.7
2022-12-18T09:32:33.231Z,9.4
2022-12-18T09:37:33.613Z,10.2
2022-12-18T09:42:33.253Z,9.6
2022-12-18T09:47:33.258Z,9.8
2022-12-18T09:52:33.244Z,9.8
2022-12-18T09:57:33.240Z,9.5
2022-12-18T10:03:02.566Z,9.9
2022-12-18T10:07:33.256Z,9.5
2022-12-18T10:12:33.257Z,9.4
2022-12-18T10:17:33.250Z,10.5
2022-12-18T10:22:33.254Z,9.3
2022-12-18T10:27:33.248Z,9.5
2022-12-18T10:32:33.294Z,9.9
2022-12-18T10:37:33.265Z,8.6
2022-12-18T10:42:33.253Z,9.5
2022-12-18T10:47:33.256Z,9.7
2022-12-18T10:52:33.260Z,7.7
2022-12-18T10:57:33.264Z,9.5
2022-12-18T11:02:33.423Z,9.2
2022-12-18T11:07:33.265Z,9.6
2022-12-18T11:12:33.268Z,9.5
2022-12-18T11:17:33.270Z,8.9
2022-12-18T11:22:33.271Z,8.7
2022-12-18T11:27:33.270Z,8.6
2022-12-18T11:32:33.290Z,10.4
2022-12-18T11:37:33.276Z,9.7
2022-12-18T11:42:33.276Z,9.4
2022-12-18T11:47:33.307Z,8.6
2022-12-18T11:52:33.280Z,9.3
2022-12-18T11:57:33.285Z,9.6
2022-12-18T12:02:33.359Z,9.6
2022-12-18T12:07:33.289Z,9.2
2022-12-18T12:12:33.283Z,9.9
2022-12-18T12:17:33.292Z,9.6
2022-12-18T12:22:33.287Z,8.9
2022-12-18T12:27:33.286Z,9.6
2022-12-18T12:32:33.290Z,9.8
2022-12-18T12:37:33.355Z,10.2
2022-12-18T12:42:33.286Z,10.0
2022-12-18T12:47:33.294Z,9.6
2022-12-18T12:52:33.313Z,9.1
2022-12-18T12:57:33.322Z,9.5
2022-12-18T13:02:33.374Z,9.6
2022-12-18T13:07:33.297Z,10.5
2022-12-18T13:12:35.369Z,10.4
2022-12-18T13:17:33.311Z,9.5
2022-12-18T13:22:33.306Z,10.2
2022-12-18T13:27:33.321Z,10.7
2022-12-18T13:32:33.304Z,9.8
2022-12-18T13:37:33.444Z,8.8
2022-12-18T13:42:33.324Z,10.4
2022-12-18T13:47:33.309Z,10.0
2022-12-18T13:52:33.316Z,10.4
2022-12-18T13:57:33.316Z,9.7
2022-12-18T14:02:33.450Z,10.5
2022-12-18T14:07:44.959Z,10.8
2022-12-18T14:12:33.747Z,11.1
2022-12-18T14:17:33.322Z,10.4
2022-12-18T14:22:33.314Z,10.2
2022-12-18T14:27:33.314Z,9.9
2022-12-18T14:32:33.329Z,12.6
2022-12-18T14:37:33.323Z,9.9
2022-12-18T14:42:33.323Z,10.7
2022-12-18T14:47:33.375Z,10.5
2022-12-18T14:52:33.367Z,10.5
2022-12-18T14:57:33.330Z,10.4
2022-12-18T15:02:33.493Z,11.3
2022-12-18T15:07:33.325Z,10.8
2022-12-18T15:12:33.327Z,10.6
2022-12-18T15:17:33.335Z,10.4
2022-12-18T15:22:33.331Z,11.6
2022-12-18T15:27:33.331Z,10.6
2022-12-18T15:32:33.899Z,11.8
2022-12-18T15:37:33.334Z,12.0
2022-12-18T15:42:33.340Z,12.2
2022-12-18T15:47:33.332Z,12.0
2022-12-18T15:52:33.343Z,11.8
2022-12-18T15:57:33.346Z,12.0
2022-12-18T16:02:33.635Z,12.6
2022-12-18T16:07:33.340Z,12.1
2022-12-18T16:12:33.336Z,12.6
2022-12-18T16:17:33.346Z,12.6
2022-12-18T16:22:33.477Z,12.6
2022-12-18T16:27:33.347Z,13.2
2022-12-18T16:32:33.349Z,12.7
2022-12-18T16:37:33.371Z,11.9
2022-12-18T16:42:33.349Z,12.2
2022-12-18T16:47:33.357Z,13.0
2022-12-18T16:52:33.370Z,12.8
2022-12-18T16:57:33.349Z,13.7
2022-12-18T17:02:33.747Z,12.9
2022-12-18T17:07:33.356Z,11.8
2022-12-18T17:12:33.360Z,12.8
2022-12-18T17:17:33.359Z,12.6
2022-12-18T17:22:33.362Z,13.9
2022-12-18T17:27:33.354Z,14.0
2022-12-18T17:32:33.360Z,12.0
2022-12-18T17:37:33.355Z,13.8
2022-12-18T17:42:33.365Z,13.7
2022-12-18T17:47:33.356Z,14.3
2022-12-18T17:52:33.355Z,13.4
2022-12-18T17:57:33.362Z,13.4
2022-12-18T18:02:33.561Z,13.4
2022-12-18T18:07:33.365Z,13.0
2022-12-18T18:12:33.363Z,13.7
2022-12-18T18:17:33.381Z,12.7
2022-12-18T18:22:33.371Z,14.9
2022-12-18T18:27:39.061Z,13.8
2022-12-18T18:32:33.370Z,13.2
2022-12-18T18:37:33.374Z,15.5
2022-12-18T18:42:33.403Z,14.5
2022-12-18T18:47:33.379Z,15.4
2022-12-18T18:52:33.379Z,13.9
2022-12-18T18:57:33.380Z,13.1
2022-12-18T19:02:33.580Z,14.7
2022-12-18T19:07:33.379Z,13.8
2022-12-18T19:12:33.383Z,13.4
2022-12-18T19:17:33.422Z,13.1
2022-12-18T19:22:33.386Z,13.9
2022-12-18T19:27:33.391Z,13.2
2022-12-18T19:32:33.496Z,14.1
2022-12-18T19:37:33.393Z,14.0
2022-12-18T19:42:35.832Z,14.3
2022-12-18T19:47:33.390Z,12.7
2022-12-18T19:52:33.393Z,13.6
2022-12-18T19:57:33.401Z,13.9
2022-12-18T20:02:33.640Z,14.4
2022-12-18T20:07:33.393Z,12.9
2022-12-18T20:12:33.420Z,14.6
2022-12-18T20:17:33.400Z,13.8
2022-12-18T20:22:33.401Z,14.3
2022-12-18T20:27:33.406Z,15.2
2022-12-18T20:32:37.432Z,14.1
2022-12-18T20:37:33.407Z,15.5
2022-12-18T20:42:33.408Z,15.5
2022-12-18T20:47:33.409Z,14.8
2022-12-18T20:52:33.416Z,14.8
2022-12-18T20:57:33.409Z,16.3
2022-12-18T21:02:33.733Z,15.8
2022-12-18T21:07:33.408Z,14.2
2022-12-18T21:12:42.768Z,15.3
2022-12-18T21:17:45.002Z,15.0
2022-12-18T21:22:33.413Z,14.8
2022-12-18T21:27:33.414Z,14.6
2022-12-18T21:32:33.792Z,15.0
2022-12-18T21:37:33.428Z,16.6
2022-12-18T21:42:33.425Z,17.0
2022-12-18T21:47:33.530Z,16.5
2022-12-18T21:52:33.433Z,16.7
2022-12-18T21:57:33.423Z,16.7
2022-12-18T22:02:33.591Z,15.9
2022-12-18T22:07:33.427Z,17.6
2022-12-18T22:12:33.435Z,15.7
2022-12-18T22:17:33.435Z,17.0
2022-12-18T22:22:33.426Z,15.7
2022-12-18T22:27:33.437Z,15.8
2022-12-18T22:32:33.429Z,15.8
2022-12-18T22:37:33.435Z,16.3
2022-12-18T22:42:33.436Z,18.1
2022-12-18T22:47:33.441Z,16.3
2022-12-18T22:52:33.434Z,17.3
2022-12-18T22:57:33.434Z,15.1
2022-12-18T23:02:33.583Z,17.4
2022-12-18T23:07:33.443Z,16.5
2022-12-18T23:12:34.707Z,17.0
2022-12-18T23:17:33.448Z,16.3
2022-12-18T23:22:33.442Z,16.6
2022-12-18T23:27:33.444Z,16.6
2022-12-18T23:32:34.191Z,15.4
2022-12-18T23:37:59.138Z,16.9
2022-12-18T23:42:33.515Z,16.9
2022-12-18T23:47:33.451Z,16.4
2022-12-18T23:52:33.470Z,17.2
2022-12-18T23:57:33.451Z,16.5
